EW2058 Weather Reports


time (UTC)temp
C
wind
direction
speed
KPH
gust
KPH
rain 1hr
cm
rain 24hr
cm
rain mn
cm
humidity
%
barometer
mb
20220627215304 33 241 9.7 16.1 0.00 0.00 0.00 14 1020.9
20220627214804 33 151 8.0 11.3 0.00 0.00 0.00 15 1020.9
20220627214304 33 103 8.0 11.3 0.00 0.00 0.00 15 1020.9
20220627213804 33 136 9.7 14.5 0.00 0.00 0.00 14 1020.9
20220627213304 33 252 8.0 16.1 0.00 0.00 0.00 13 1020.9
20220627212803 33 236 12.9 19.3 0.00 0.00 0.00 14 1021.0
20220627212303 33 141 8.0 11.3 0.00 0.00 0.00 16 1021.2
20220627211803 33 236 11.3 20.9 0.00 0.00 0.00 16 1021.2
20220627211304 32 236 9.7 20.9 0.00 0.00 0.00 16 1021.2
20220627210804 32 199 9.7 19.3 0.00 0.00 0.00 18 1021.2
20220627210304 32 139 8.0 11.3 0.00 0.00 0.00 16 1021.2
20220627205804 32 183 11.3 19.3 0.00 0.00 0.00 14 1021.2
20220627205304 32 194 8.0 16.1 0.00 0.00 0.00 15 1021.2
20220627204804 32 157 8.0 11.3 0.00 0.00 0.00 20 1021.2
20220627204303 32 313 3.2 11.3 0.00 0.00 0.00 24 1021.2
20220627203803 31 88 6.4 11.3 0.00 0.00 0.00 23 1021.5
20220627203304 31 38 8.0 12.9 0.00 0.00 0.00 24 1021.5
20220627202804 31 39 8.0 12.9 0.00 0.00 0.00 25 1021.5
20220627202304 31 51 6.4 19.3 0.00 0.00 0.00 26 1021.5
20220627201804 30 46 11.3 14.5 0.00 0.00 0.00 28 1021.5
20220627201304 30 21 4.8 12.9 0.00 0.00 0.00 28 1021.7
20220627200804 30 58 9.7 12.9 0.00 0.00 0.00 26 1021.9
20220627200303 29 18 9.7 16.1 0.00 0.00 0.00 29 1021.9
20220627195804 29 63 12.9 19.3 0.00 0.00 0.00 29 1021.9
20220627195304 30 35 9.7 14.5 0.00 0.00 0.00 28 1021.9
20220627194804 29 82 6.4 9.7 0.00 0.00 0.00 28 1021.9
20220627194304 29 90 8.0 14.5 0.00 0.00 0.00 29 1021.9
20220627193804 29 69 9.7 12.9 0.00 0.00 0.00 31 1021.9
20220627193304 29 86 8.0 12.9 0.00 0.00 0.00 31 1022.1
20220627192804 28 35 8.0 16.1 0.00 0.00 0.00 29 1022.2
20220627192304 28 46 9.7 12.9 0.00 0.00 0.00 29 1022.2
20220627191804 28 29 9.7 12.9 0.00 0.00 0.00 30 1022.2
20220627191304 28 40 8.0 12.9 0.00 0.00 0.00 30 1022.2
20220627190804 28 52 8.0 12.9 0.00 0.00 0.00 31 1022.2
20220627190304 28 38 4.8 9.7 0.00 0.00 0.00 30 1022.2
20220627185803 28 2 8.0 11.3 0.00 0.00 0.00 29 1022.3
20220627185304 28 67 8.0 11.3 0.00 0.00 0.00 29 1022.4
20220627184804 28 34 6.4 11.3 0.00 0.00 0.00 30 1022.5
20220627184304 27 28 9.7 12.9 0.00 0.00 0.00 30 1022.5
20220627183805 27 39 8.0 12.9 0.00 0.00 0.00 30 1022.5
20220627183304 27 17 8.0 12.9 0.00 0.00 0.00 31 1022.5
20220627182804 27 60 9.7 14.5 0.00 0.00 0.00 30 1022.5
20220627182304 27 66 8.0 12.9 0.00 0.00 0.00 28 1022.5
20220627181804 27 48 8.0 14.5 0.00 0.00 0.00 31 1022.5
20220627181304 27 62 9.7 12.9 0.00 0.00 0.00 29 1022.5
20220627180804 27 35 4.8 11.3 0.00 0.00 0.00 31 1022.5
20220627180303 26 94 8.0 11.3 0.00 0.00 0.00 29 1022.5
20220627175804 26 96 8.0 11.3 0.00 0.00 0.00 28 1022.5
20220627175304 27 249 1.6 4.8 0.00 0.00 0.00 30 1022.5
20220627174804 26 358 4.8 9.7 0.00 0.00 0.00 30 1022.6
20220627174304 26 330 3.2 8.0 0.00 0.00 0.00 31 1022.5
20220627173803 25 4 4.8 9.7 0.00 0.00 0.00 31 1022.5
20220627173304 25 32 4.8 9.7 0.00 0.00 0.00 31 1022.6
20220627172804 25 39 6.4 9.7 0.00 0.00 0.00 32 1022.8
20220627172304 24 16 8.0 9.7 0.00 0.00 0.00 33 1022.9
20220627171804 24 23 8.0 11.3 0.00 0.00 0.00 33 1022.9
20220627171303 24 13 4.8 9.7 0.00 0.00 0.00 33 1022.9
20220627170803 24 13 6.4 9.7 0.00 0.00 0.00 32 1022.9
20220627170304 24 27 4.8 8.0 0.00 0.00 0.00 36 1022.9
20220627165804 23 29 4.8 9.7 0.00 0.00 0.00 39 1022.9
20220627165304 23 56 4.8 9.7 0.00 0.00 0.00 38 1022.9
20220627164803 23 19 6.4 11.3 0.00 0.00 0.00 40 1022.9
20220627164304 23 38 8.0 9.7 0.00 0.00 0.00 39 1022.9
20220627163804 23 62 6.4 11.3 0.00 0.00 0.00 40 1022.9
20220627163304 22 79 4.8 9.7 0.00 0.00 0.00 40 1022.9
20220627162804 22 120 4.8 9.7 0.00 0.00 0.00 40 1023.2
20220627162304 22 101 8.0 12.9 0.00 0.00 0.00 41 1023.2
20220627161803 22 46 4.8 8.0 0.00 0.00 0.00 40 1023.2
20220627161304 21 355 6.4 9.7 0.00 0.00 0.00 42 1023.2
20220627160804 21 37 6.4 9.7 0.00 0.00 0.00 41 1023.2
20220627160304 21 41 6.4 9.7 0.00 0.00 0.00 42 1023.2
20220627155804 21 29 4.8 9.7 0.00 0.00 0.00 42 1023.2
20220627155304 21 27 4.8 8.0 0.00 0.00 0.00 40 1023.2
20220627154804 20 12 3.2 8.0 0.00 0.00 0.00 43 1023.2
20220627154304 20 51 6.4 9.7 0.00 0.00 0.00 43 1023.2
20220627153804 20 19 8.0 9.7 0.00 0.00 0.00 42 1023.2
20220627153303 20 71 4.8 9.7 0.00 0.00 0.00 40 1023.2
20220627152803 20 99 8.0 9.7 0.00 0.00 0.00 40 1023.2
20220627152304 20 64 8.0 9.7 0.00 0.00 0.00 41 1023.2
20220627151804 20 98 4.8 8.0 0.00 0.00 0.00 41 1023.2
20220627151304 20 86 3.2 4.8 0.00 0.00 0.00 42 1023.2
20220627150803 20 77 4.8 8.0 0.00 0.00 0.00 42 1023.2
20220627150304 19 89 3.2 8.0 0.00 0.00 0.00 43 1023.2
20220627145804 19 105 3.2 8.0 0.00 0.00 0.00 44 1023.2
20220627145304 18 89 4.8 8.0 0.00 0.00 0.00 45 1023.2
20220627144803 19 71 8.0 11.3 0.00 0.00 0.00 44 1023.2
20220627144304 19 80 1.6 3.2 0.00 0.00 0.00 43 1023.2
20220627143803 18 306 3.2 4.8 0.00 0.00 0.00 42 1023.2
20220627143303 18 54 6.4 9.7 0.00 0.00 0.00 41 1023.2
20220627142804 18 24 4.8 8.0 0.00 0.00 0.00 42 1023.2
20220627142304 18 26 6.4 9.7 0.00 0.00 0.00 42 1023.2
20220627141804 18 38 4.8 8.0 0.00 0.00 0.00 43 1023.2
20220627141304 19 64 4.8 8.0 0.00 0.00 0.00 43 1023.2
20220627140804 20 279 1.6 3.2 0.00 0.00 0.00 43 1023.2
20220627140304 19 344 4.8 8.0 0.00 0.00 0.00 42 1023.2
20220627135804 19 111 3.2 3.2 0.00 0.00 0.00 41 1023.2
20220627135304 18 123 1.6 8.0 0.00 0.00 0.00 42 1023.2
20220627134804 18 347 8.0 9.7 0.00 0.00 0.00 42 1023.2
20220627134304 18 2 1.6 9.7 0.00 0.00 0.00 44 1023.2
20220627133804 18 69 4.8 8.0 0.00 0.00 0.00 48 1023.2
20220627133303 18 84 1.6 8.0 0.00 0.00 0.00 48 1023.2
20220627132804 17 103 3.2 4.8 0.00 0.00 0.00 45 1023.2
20220627132304 17 187 3.2 4.8 0.00 0.00 0.00 45 1023.2
20220627131804 17 228 4.8 4.8 0.00 0.00 0.00 45 1023.2
20220627131304 16 212 4.8 4.8 0.00 0.00 0.00 43 1023.2
20220627130804 17 247 4.8 4.8 0.00 0.00 0.00 43 1023.2
20220627130304 17 267 1.6 4.8 0.00 0.00 0.00 41 1022.9
20220627125804 17 320 3.2 4.8 0.00 0.00 0.00 41 1022.9
20220627125303 17 245 3.2 8.0 0.00 0.00 0.00 40 1022.9
20220627124804 16 316 4.8 8.0 0.00 0.00 0.00 42 1022.9
20220627124304 17 301 4.8 8.0 0.00 0.00 0.00 42 1022.9
20220627123804 17 355 8.0 9.7 0.00 0.00 0.00 40 1022.9
20220627123304 18 99 3.2 4.8 0.00 0.00 0.00 33 1022.9
20220627122804 18 180 4.8 8.0 0.00 0.00 0.00 33 1022.9
20220627122304 18 208 4.8 9.7 0.00 0.00 0.00 32 1022.9
20220627121804 18 211 4.8 12.9 0.00 0.00 0.00 32 1022.9
20220627121304 18 234 11.3 16.1 0.00 0.00 0.00 34 1022.9
20220627120804 17 245 9.7 11.3 0.00 0.00 0.00 38 1022.9
20220627120303 16 239 9.7 11.3 0.00 0.00 0.00 40 1022.9
20220627115804 16 249 8.0 9.7 0.00 0.00 0.00 41 1022.9
20220627115304 16 249 4.8 9.7 0.00 0.00 0.00 40 1022.9
20220627114803 16 212 3.2 8.0 0.00 0.00 0.00 39 1022.9
20220627114304 17 239 3.2 4.8 0.00 0.00 0.00 38 1022.9
20220627113804 17 208 1.6 3.2 0.00 0.00 0.00 36 1022.9
20220627113304 17 179 3.2 9.7 0.00 0.00 0.00 35 1022.9
20220627112803 18 202 8.0 14.5 0.00 0.00 0.00 34 1022.9
20220627112303 18 235 8.0 12.9 0.00 0.00 0.00 32 1022.5
20220627111804 18 207 8.0 11.3 0.00 0.00 0.00 31 1022.5
20220627111304 18 210 8.0 11.3 0.00 0.00 0.00 32 1022.5
20220627110804 17 212 8.0 11.3 0.00 0.00 0.00 36 1022.5
20220627110303 17 253 4.8 8.0 0.00 0.00 0.00 38 1022.5
20220627105804 16 257 4.8 8.0 0.00 0.00 0.00 38 1022.5
20220627105304 17 247 4.8 8.0 0.00 0.00 0.00 38 1022.5
20220627104803 17 240 6.4 9.7 0.00 0.00 0.00 37 1022.5
20220627104304 17 221 1.6 4.8 0.00 0.00 0.00 36 1022.5
20220627103804 17 135 3.2 4.8 0.00 0.00 0.00 35 1022.5
20220627103304 17 256 3.2 4.8 0.00 0.00 0.00 35 1022.5
20220627102803 18 219 4.8 9.7 0.00 0.00 0.00 34 1022.5
20220627102303 18 230 6.4 9.7 0.00 0.00 0.00 35 1022.5
20220627101804 18 221 8.0 11.3 0.00 0.00 0.00 34 1022.5
20220627101304 18 208 9.7 12.9 0.00 0.00 0.00 32 1022.5
20220627100805 19 185 8.0 12.9 0.00 0.00 0.00 30 1022.5
20220627100304 19 229 8.0 14.5 0.00 0.00 0.00 31 1022.5
20220627095803 18 220 8.0 11.3 0.00 0.00 0.00 32 1022.5
20220627095304 18 231 4.8 9.7 0.00 0.00 0.00 32 1022.5
20220627094804 18 238 4.8 8.0 0.00 0.00 0.00 32 1022.5
20220627094304 18 236 4.8 11.3 0.00 0.00 0.00 32 1022.5
20220627093803 18 246 8.0 9.7 0.00 0.00 0.00 32 1022.5
20220627093304 19 206 4.8 8.0 0.00 0.00 0.00 31 1022.5
20220627092803 19 187 4.8 8.0 0.00 0.00 0.00 30 1022.5
20220627092304 18 183 4.8 9.7 0.00 0.00 0.00 31 1022.2
20220627091804 18 231 9.7 12.9 0.00 0.00 0.00 31 1022.2
20220627091304 18 219 8.0 9.7 0.00 0.00 0.00 32 1022.2
20220627090803 18 211 6.4 9.7 0.00 0.00 0.00 31 1022.2
20220627090304 18 228 9.7 11.3 0.00 0.00 0.00 31 1022.3
20220627085804 18 225 8.0 11.3 0.00 0.00 0.00 31 1022.5
20220627085304 19 244 3.2 8.0 0.00 0.00 0.00 31 1022.5
20220627084803 18 203 3.2 8.0 0.00 0.00 0.00 31 1022.5
20220627084303 18 243 4.8 8.0 0.00 0.00 0.00 32 1022.5
20220627083804 18 275 3.2 8.0 0.00 0.00 0.00 32 1022.5
20220627083304 18 245 8.0 11.3 0.00 0.00 0.00 32 1022.5
20220627082803 18 227 9.7 12.9 0.00 0.00 0.00 33 1022.5
20220627082303 18 220 9.7 12.9 0.00 0.00 0.00 33 1022.5
20220627081804 18 219 11.3 14.5 0.00 0.00 0.00 33 1022.5
20220627081304 18 223 4.8 8.0 0.00 0.00 0.00 33 1022.5
20220627080804 19 217 6.4 9.7 0.00 0.00 0.00 32 1022.5
20220627080304 19 191 6.4 11.3 0.00 0.00 0.00 31 1022.5
20220627075804 19 252 4.8 9.7 0.00 0.00 0.00 32 1022.5
20220627075304 19 244 3.2 11.3 0.00 0.00 0.00 32 1022.5
20220627074804 20 163 8.0 12.9 0.00 0.00 0.00 31 1022.5
20220627074304 20 177 8.0 14.5 0.00 0.00 0.00 31 1022.5
20220627073803 20 240 9.7 16.1 0.00 0.00 0.00 32 1022.5
20220627073304 20 165 11.3 16.1 0.00 0.00 0.00 32 1022.5
20220627072804 20 174 11.3 14.5 0.00 0.00 0.00 32 1022.5
20220627072304 20 184 6.4 14.5 0.00 0.00 0.00 33 1022.5
20220627071803 20 202 8.0 11.3 0.00 0.00 0.00 32 1022.5
20220627071303 20 202 4.8 8.0 0.00 0.00 0.00 32 1022.5
20220627070804 19 210 4.8 8.0 0.00 0.00 0.00 33 1022.5
20220627070303 19 248 4.8 9.7 0.00 0.00 0.00 35 1022.5
20220627065804 20 224 9.7 12.9 0.00 0.00 0.00 34 1022.6
20220627065304 20 191 11.3 16.1 0.00 0.00 0.00 33 1022.6
20220627064804 20 201 14.5 20.9 0.00 0.00 0.00 33 1022.6
20220627064304 20 219 11.3 20.9 0.00 0.00 0.00 34 1022.7
20220627063803 20 207 11.3 14.5 0.00 0.00 0.00 34 1022.9
20220627063304 20 205 9.7 12.9 0.00 0.00 0.00 33 1022.9
20220627062803 20 166 4.8 8.0 0.00 0.00 0.00 34 1022.9
20220627062304 20 242 6.4 11.3 0.00 0.00 0.00 34 1022.9
20220627061804 20 233 8.0 16.1 0.00 0.00 0.00 34 1022.9
20220627061303 20 225 9.7 16.1 0.00 0.00 0.00 33 1022.9
20220627060804 20 219 9.7 16.1 0.00 0.00 0.00 34 1022.9
20220627060304 20 186 11.3 19.3 0.00 0.00 0.00 34 1022.9
20220627055803 20 193 9.7 16.1 0.00 0.00 0.00 35 1022.9
20220627055303 20 211 9.7 16.1 0.00 0.00 0.00 36 1022.9
20220627054804 20 225 9.7 12.9 0.00 0.00 0.00 35 1022.9
20220627054304 20 199 6.4 14.5 0.00 0.00 0.00 36 1022.9
20220627053803 20 195 9.7 12.9 0.00 0.00 0.00 36 1022.9
20220627053303 21 220 11.3 19.3 0.00 0.00 0.00 35 1022.9
20220627052803 21 213 12.9 16.1 0.00 0.00 0.00 35 1022.9
20220627052304 21 209 11.3 14.5 0.00 0.00 0.00 36 1022.9
20220627051804 20 214 9.7 12.9 0.00 0.00 0.00 36 1022.9
20220627051304 21 215 9.7 12.9 0.00 0.00 0.00 36 1022.9
20220627050803 21 211 11.3 14.5 0.00 0.00 0.00 35 1022.9
20220627050304 21 190 9.7 16.1 0.00 0.00 0.00 34 1022.9
20220627045804 22 199 14.5 19.3 0.00 0.00 0.00 32 1022.9
20220627045304 22 181 11.3 20.9 0.00 0.00 0.00 33 1022.9
20220627044803 22 194 14.5 20.9 0.00 0.00 0.00 32 1022.9
20220627044304 22 172 9.7 20.9 0.00 0.00 0.00 32 1022.9
20220627043804 22 184 14.5 19.3 0.00 0.00 0.00 32 1022.9
20220627043303 22 193 9.7 19.3 0.00 0.00 0.00 30 1022.8
20220627042804 22 165 11.3 16.1 0.00 0.00 0.00 32 1022.6
20220627042304 22 198 11.3 16.1 0.00 0.00 0.00 32 1022.6
20220627041803 22 189 11.3 14.5 0.00 0.00 0.00 30 1022.5
20220627041304 22 218 8.0 11.3 0.00 0.00 0.00 30 1022.5
20220627040804 22 225 8.0 14.5 0.00 0.00 0.00 30 1022.5
20220627040304 23 173 8.0 14.5 0.00 0.00 0.00 29 1022.5
20220627035804 23 192 9.7 14.5 0.00 0.00 0.00 28 1022.5
20220627035303 23 225 8.0 11.3 0.00 0.00 0.00 25 1022.2
20220627034804 24 248 3.2 4.8 0.00 0.00 0.00 23 1022.2
20220627034304 24 265 3.2 4.8 0.00 0.00 0.00 23 1022.2
20220627033804 25 269 4.8 8.0 0.00 0.00 0.00 22 1022.2
20220627033304 25 274 4.8 8.0 0.00 0.00 0.00 21 1022.2
20220627032804 26 305 4.8 8.0 0.00 0.00 0.00 19 1022.2
20220627032304 26 304 8.0 9.7 0.00 0.00 0.00 18 1022.2
20220627031804 27 342 3.2 4.8 0.00 0.00 0.00 17 1022.2
20220627031304 27 22 3.2 8.0 0.00 0.00 0.00 17 1022.2
20220627030804 27 11 4.8 4.8 0.00 0.00 0.00 16 1022.2
20220627030303 27 346 3.2 4.8 0.00 0.00 0.00 17 1022.2
20220627025805 27 336 4.8 8.0 0.00 0.00 0.00 17 1022.2
20220627025304 27 340 4.8 8.0 0.00 0.00 0.00 17 1022.2
20220627024804 27 0 4.8 8.0 0.00 0.00 0.00 18 1022.2
20220627024304 27 0 4.8 8.0 0.00 0.00 0.00 18 1022.2
20220627023804 27 353 4.8 8.0 0.00 0.00 0.00 18 1022.2
20220627023303 27 332 8.0 8.0 0.00 0.00 0.00 19 1022.2
20220627022803 27 335 8.0 9.7 0.00 0.00 0.00 21 1022.2
20220627022303 27 330 6.4 8.0 0.00 0.00 0.00 22 1022.2
20220627021804 27 326 8.0 9.7 0.00 0.00 0.00 22 1022.2
20220627021303 27 328 8.0 9.7 0.00 0.00 0.00 22 1022.2
20220627020804 27 344 8.0 9.7 0.00 0.00 0.00 20 1022.2
20220627020303 27 342 8.0 9.7 0.00 0.00 0.00 19 1022.2
20220627015804 27 335 8.0 9.7 0.00 0.00 0.00 20 1022.2
20220627015304 28 339 8.0 9.7 0.00 0.00 0.00 20 1022.2
20220627014803 28 341 8.0 9.7 0.00 0.00 0.00 21 1022.2
20220627014303 28 343 6.4 8.0 0.00 0.00 0.00 22 1022.2
20220627013804 27 6 4.8 9.7 0.00 0.00 0.00 21 1022.2
20220627013304 28 359 4.8 9.7 0.00 0.00 0.00 26 1022.2
20220627012804 27 5 8.0 9.7 0.00 0.00 0.00 22 1022.2
20220627012304 27 13 4.8 9.7 0.00 0.00 0.00 25 1022.2
20220627011804 27 31 6.4 9.7 0.00 0.00 0.00 27 1022.2
20220627011304 27 21 8.0 11.3 0.00 0.00 0.00 24 1022.2
20220627010804 28 24 8.0 14.5 0.00 0.00 0.00 24 1022.2
20220627010303 28 29 4.8 14.5 0.00 0.00 0.00 22 1022.2
20220627005804 28 41 4.8 9.7 0.00 0.00 0.00 20 1022.2
20220627005303 28 11 8.0 9.7 0.00 0.00 0.00 18 1022.2
20220627004803 28 23 9.7 12.9 0.00 0.00 0.00 17 1022.2
20220627004304 28 18 8.0 12.9 0.00 0.00 0.00 17 1022.2
20220627003803 28 20 8.0 11.3 0.00 0.00 0.00 20 1022.2
20220627003304 28 24 9.7 11.3 0.00 0.00 0.00 17 1022.2
20220627002804 28 2 8.0 11.3 0.00 0.00 0.00 20 1022.5
20220627002304 28 27 8.0 11.3 0.00 0.00 0.00 18 1022.5
20220627001804 28 22 6.4 11.3 0.00 0.00 0.00 20 1022.5
20220627001304 28 352 8.0 9.7 0.00 0.00 0.00 19 1022.5
20220627000804 28 12 4.8 9.7 0.00 0.00 0.00 20 1022.5
20220627000304 28 47 8.0 12.9 0.00 0.00 0.00 19 1022.5
20220626235804 28 49 4.8 9.7 0.00 0.00 0.00 21 1022.8
20220626235304 28 57 8.0 11.3 0.00 0.00 0.00 19 1022.9
20220626234804 28 54 8.0 12.9 0.00 0.00 0.00 19 1022.9
20220626234304 28 40 4.8 9.7 0.00 0.00 0.00 19 1022.9
20220626233804 28 340 4.8 12.9 0.00 0.00 0.00 18 1022.9
20220626233304 29 349 3.2 8.0 0.00 0.00 0.00 16 1022.9
20220626232804 29 19 4.8 8.0 0.00 0.00 0.00 17 1022.9
20220626232303 29 25 4.8 9.7 0.00 0.00 0.00 16 1022.9
20220626231804 28 4 4.8 9.7 0.00 0.00 0.00 16 1022.9
20220626231304 28 17 4.8 11.3 0.00 0.00 0.00 19 1023.2
20220626230804 28 30 8.0 11.3 0.00 0.00 0.00 18 1023.2
20220626230303 28 61 11.3 16.1 0.00 0.00 0.00 20 1023.2
20220626225804 28 64 8.0 16.1 0.00 0.00 0.00 21 1023.2
20220626225304 28 30 8.0 14.5 0.00 0.00 0.00 21 1023.2
20220626224803 28 320 8.0 11.3 0.00 0.00 0.00 20 1023.2
20220626224303 28 352 4.8 11.3 0.00 0.00 0.00 20 1023.2
20220626223803 28 67 1.6 11.3 0.00 0.00 0.00 20 1023.2
20220626223304 28 66 8.0 11.3 0.00 0.00 0.00 21 1023.4
20220626222804 28 22 8.0 14.5 0.00 0.00 0.00 20 1023.6
20220626222303 27 97 11.3 14.5 0.00 0.00 0.00 21 1023.6
20220626221804 28 50 4.8 14.5 0.00 0.00 0.00 22 1023.6
20220626221303 27 88 8.0 9.7 0.00 0.00 0.00 20 1023.6
20220626220803 27 71 8.0 12.9 0.00 0.00 0.00 20 1023.6
20220626220304 28 117 8.0 14.5 0.00 0.00 0.00 19 1023.6
20220626215804 28 95 4.8 9.7 0.00 0.00 0.00 19 1023.6